Coffee Springs, Alabama
Current Conditions -  °F | °C
As of 7:35 PM on Tuesday 25 Nov 2014 (Local Time) from KEDN Reporting Station
Light Rain Light Rain  
Wind Chill: 46°   Ceiling: 11000
Heat Index: 46°   Visibility: 10mi
Dew Point: 46°   Wind: 3mph
Humidity: 100%   Direction: 310°NW
Pressure: 30.1"   Gusts: NA
Location:  31.16°N, 85.91°W
Report Text: KEDN 260135Z AUTO 31003KT 10SM -RA SCT080 OVC110 08/08 A3010 RMK AO2 P0001
Loading
Personal Weather Stations






























Interactive Weather Map New forecast layout! Learn more

10-Day Weather Forecast

Advertisements
Track Severe Weather on mobile